Alturas Municipal, CA

5:01 AM PST on December 20, 2014 (GMT -0800)
Mount Shasta | Change Station
CLOSE
Current Station
Airport
Location: Mount Shasta,
Elevation: 3533 ft
Nearby Weather Stations
Active Advisory: Wind Advisory

Elev 3533 ft 41.32 °N, 122.32 °W | Updated 5 minutes ago

Rain
Rain
42 °F
Feels Like 39 °F
N
5
Wind Variable Wind from Variable

Today
High -- | Low -- °F
--% Chance of Precip.
Yesterday
High -- | Low -- °F
Precip. -- in
7:24 AM 4:35 PM
Waning Crescent, 3% visible
Pressure 30.11 in
Visibility 10.0 miles
Clouds Scattered Clouds 2700 ft
Mostly Cloudy 3200 ft
Overcast 4600 ft
Windchill 39 °F
Dew Point 38 °F
Humidity 85%
Rainfall 0.04 in
Snow Depth Not available.
UV 0 out of 12
Pollen .50 out of 12
Air Quality Not available.
Flu Activity Not available.
METAR KMHS 201256Z AUTO VRB04KT 10SM SCT027 BKN032 OVC046 06/03 A3004 RMK AO2 SLP195 T00560033

More Conditions Fewer Conditions

Pressure 30.11 in
Visibility 10.0 miles
Clouds Scattered Clouds 2700 ft
Mostly Cloudy 3200 ft
Overcast 4600 ft
Windchill 39 °F
Dew Point 38 °F
Humidity 85%
Rainfall 0.04 in
Snow Depth Not available.
UV 0 out of 12
Pollen .50 out of 12
Air Quality Not available.
Flu Activity Not available.
METAR KMHS 201256Z AUTO VRB04KT 10SM SCT027 BKN032 OVC046 06/03 A3004 RMK AO2 SLP195 T00560033

More Conditions Fewer Conditions

10-Day Weather Forecast

Almanac

Astronomy

Dec. 20, 2014 Rise Set
Actual Time
Civil Twilight
Nautical Twilight
Astronomical Twilight
Moon
Length of Visible Light
Length of Day
Tomorrow will be .
, % of the Moon is Illuminated

Today's Extremes

State Highs State Lows

Community

WunderPhotos

Upload Photos

1,779,167 photos uploaded!

WunderBlogs® & News

Nearby

Air Quality

  Air Quality AQ Index Pollutant
Not available.

Snow Depth

Station Depth Elevation

Earthquake Activity

City Distance Mag. Time & Date
Minimum magnitude displayed is 2.5.

Coastal Water Temperatures

Place Temperature

Nearby Weather Stations